createdAt,value
2022-10-29T00:00:56.399Z,4.38
2022-10-29T00:03:24.344Z,3.50
2022-10-29T00:05:58.522Z,3.65
2022-10-29T00:08:25.815Z,3.45
2022-10-29T00:10:52.570Z,3.92
2022-10-29T00:13:19.625Z,3.80
2022-10-29T00:15:46.407Z,3.80
2022-10-29T00:18:13.188Z,4.07
2022-10-29T00:20:39.904Z,3.70
2022-10-29T00:23:06.679Z,3.88
2022-10-29T00:25:33.474Z,3.45
2022-10-29T00:28:00.276Z,3.50
2022-10-29T00:30:26.968Z,3.30
2022-10-29T00:32:54.056Z,3.47
2022-10-29T00:35:20.932Z,3.10
2022-10-29T00:37:47.691Z,3.10
2022-10-29T00:40:14.609Z,4.18
2022-10-29T00:42:41.364Z,3.30
2022-10-29T00:45:18.458Z,2.97
2022-10-29T00:47:49.036Z,2.92
2022-10-29T00:50:15.853Z,3.00
2022-10-29T00:52:45.516Z,3.00
2022-10-29T00:55:15.701Z,3.00
2022-10-29T00:57:48.820Z,2.70
2022-10-29T01:00:17.415Z,2.95
2022-10-29T01:02:45.824Z,3.42
2022-10-29T01:05:16.225Z,3.03
2022-10-29T01:07:43.032Z,3.00
2022-10-29T01:10:11.262Z,2.92
2022-10-29T01:12:57.115Z,2.72
2022-10-29T01:15:43.536Z,2.75
2022-10-29T01:18:18.863Z,3.13
2022-10-29T01:21:03.252Z,2.60
2022-10-29T01:23:54.925Z,3.28
2022-10-29T01:26:47.744Z,2.90
2022-10-29T01:29:32.652Z,2.50
2022-10-29T01:32:02.348Z,2.83
2022-10-29T01:34:55.345Z,2.65
2022-10-29T01:37:30.415Z,2.90
2022-10-29T01:40:08.725Z,2.67
2022-10-29T01:42:45.088Z,2.53
2022-10-29T01:45:29.750Z,3.10
2022-10-29T01:48:07.344Z,2.67
2022-10-29T01:50:35.776Z,2.83
2022-10-29T01:53:04.872Z,2.90
2022-10-29T01:55:36.360Z,3.28
2022-10-29T01:58:05.214Z,2.60
2022-10-29T02:01:01.241Z,2.83
2022-10-29T02:03:33.470Z,2.97
2022-10-29T02:06:29.083Z,2.60
2022-10-29T02:09:10.311Z,3.00
2022-10-29T02:11:59.678Z,3.13
2022-10-29T02:14:32.339Z,2.88
2022-10-29T02:17:00.395Z,3.40
2022-10-29T02:19:32.211Z,2.90
2022-10-29T02:21:59.089Z,2.63
2022-10-29T02:24:26.067Z,3.00
2022-10-29T02:26:53.012Z,2.95
2022-10-29T02:29:19.897Z,4.13
2022-10-29T02:31:46.716Z,3.78
2022-10-29T02:34:13.680Z,2.85
2022-10-29T02:36:40.448Z,2.80
2022-10-29T02:39:07.207Z,2.63
2022-10-29T02:41:33.954Z,2.22
2022-10-29T02:44:00.725Z,2.17
2022-10-29T02:46:27.515Z,3.00
2022-10-29T02:48:54.284Z,2.85
2022-10-29T02:51:21.085Z,2.70
2022-10-29T02:53:47.826Z,3.17
2022-10-29T02:56:14.572Z,3.30
2022-10-29T02:58:41.350Z,3.60
2022-10-29T03:01:08.176Z,4.30
2022-10-29T03:03:34.914Z,3.55
2022-10-29T03:06:01.698Z,2.90
2022-10-29T03:08:28.464Z,3.00
2022-10-29T03:10:55.713Z,2.88
2022-10-29T03:13:22.591Z,2.78
2022-10-29T03:15:49.419Z,2.30
2022-10-29T03:18:16.257Z,2.67
2022-10-29T03:20:43.609Z,1.95
2022-10-29T03:23:10.356Z,2.53
2022-10-29T03:25:37.194Z,3.40
2022-10-29T03:28:04.044Z,3.33
2022-10-29T03:30:30.809Z,3.63
2022-10-29T03:32:57.929Z,3.63
2022-10-29T03:35:24.954Z,3.22
2022-10-29T03:37:52.254Z,2.78
2022-10-29T03:40:19.605Z,3.33
2022-10-29T03:42:46.705Z,2.42
2022-10-29T03:45:13.579Z,3.03
2022-10-29T03:47:40.361Z,2.30
2022-10-29T03:50:07.798Z,2.60
2022-10-29T03:52:34.528Z,2.65
2022-10-29T03:55:01.352Z,2.88
2022-10-29T03:57:28.215Z,2.42
2022-10-29T03:59:56.079Z,2.40
2022-10-29T04:02:23.568Z,2.60
2022-10-29T04:04:50.342Z,2.30
2022-10-29T04:07:17.343Z,2.40
2022-10-29T04:09:44.198Z,2.03
2022-10-29T04:12:10.957Z,2.35
2022-10-29T04:14:42.754Z,2.25
2022-10-29T04:17:12.728Z,2.30
2022-10-29T04:19:39.529Z,2.00
2022-10-29T04:30:27.393Z,2.58
2022-10-29T04:33:00.721Z,2.45
2022-10-29T04:35:28.458Z,2.30
2022-10-29T04:37:55.552Z,2.17
2022-10-29T04:40:24.419Z,2.20
2022-10-29T04:42:51.385Z,2.13
2022-10-29T04:45:18.799Z,2.40
2022-10-29T04:47:46.455Z,2.90
2022-10-29T04:50:14.905Z,2.42
2022-10-29T04:52:41.699Z,2.47
2022-10-29T04:55:08.841Z,2.53
2022-10-29T04:57:35.586Z,2.60
2022-10-29T05:00:02.498Z,2.63
2022-10-29T05:02:29.298Z,2.50
2022-10-29T05:04:56.156Z,2.03
2022-10-29T05:07:22.924Z,2.38
2022-10-29T05:09:49.728Z,2.42
2022-10-29T05:12:16.549Z,2.53
2022-10-29T05:14:43.266Z,2.05
2022-10-29T05:17:10.105Z,1.90
2022-10-29T05:19:36.872Z,2.13
2022-10-29T05:22:03.705Z,1.42
2022-10-29T05:24:30.488Z,2.00
2022-10-29T05:26:57.257Z,1.55
2022-10-29T05:29:24.017Z,1.40
2022-10-29T05:31:54.504Z,1.90
2022-10-29T05:34:21.663Z,2.70
2022-10-29T05:36:48.560Z,2.20
2022-10-29T05:39:15.607Z,1.83
2022-10-29T05:41:42.562Z,1.80
2022-10-29T05:44:09.669Z,1.83
2022-10-29T05:46:36.485Z,1.67
2022-10-29T05:49:03.701Z,2.05
2022-10-29T05:51:30.755Z,2.53
2022-10-29T05:53:57.538Z,2.17
2022-10-29T05:56:24.300Z,2.10
2022-10-29T05:58:51.382Z,1.70
2022-10-29T06:01:19.859Z,2.10
2022-10-29T06:03:47.198Z,3.17
2022-10-29T06:06:14.091Z,2.83
2022-10-29T06:08:40.896Z,2.20
2022-10-29T06:11:07.686Z,2.00
2022-10-29T06:13:34.535Z,1.63
2022-10-29T06:16:01.539Z,1.42
2022-10-29T06:18:28.813Z,1.75
2022-10-29T06:20:59.603Z,1.90
2022-10-29T06:23:27.389Z,1.80
2022-10-29T06:25:54.133Z,1.80
2022-10-29T06:28:21.102Z,2.28
2022-10-29T06:30:51.674Z,1.60
2022-10-29T06:33:19.538Z,2.08
2022-10-29T06:35:46.903Z,1.70
2022-10-29T06:38:14.461Z,1.75
2022-10-29T06:40:43.426Z,1.63
2022-10-29T06:43:11.946Z,1.70
2022-10-29T06:45:38.827Z,2.30
2022-10-29T06:48:06.057Z,1.58
2022-10-29T06:50:32.917Z,2.15
2022-10-29T06:53:06.846Z,2.45
2022-10-29T06:55:34.594Z,2.58
2022-10-29T06:58:03.974Z,2.30
2022-10-29T07:00:32.019Z,2.47
2022-10-29T07:02:59.961Z,1.90
2022-10-29T07:05:27.527Z,1.67
2022-10-29T07:07:58.892Z,2.17
2022-10-29T07:10:27.794Z,1.90
2022-10-29T07:12:54.682Z,2.38
2022-10-29T07:15:25.630Z,2.55
2022-10-29T07:18:04.869Z,5.30
2022-10-29T07:20:34.420Z,5.03
2022-10-29T07:23:03.302Z,4.53
2022-10-29T07:25:31.389Z,3.80
2022-10-29T07:28:08.565Z,4.00
2022-10-29T07:30:35.356Z,5.68
2022-10-29T07:33:02.243Z,5.97
2022-10-29T07:35:29.108Z,4.75
2022-10-29T07:38:05.162Z,3.72
2022-10-29T07:40:40.952Z,4.10
2022-10-29T07:43:08.819Z,3.92
2022-10-29T07:45:35.541Z,4.00
2022-10-29T07:48:04.736Z,4.10
2022-10-29T07:50:32.371Z,4.20
2022-10-29T07:53:05.024Z,4.55
2022-10-29T07:55:31.959Z,4.35
2022-10-29T07:58:01.349Z,6.57
2022-10-29T08:00:33.205Z,9.88
2022-10-29T08:02:59.936Z,6.20
2022-10-29T08:05:28.863Z,5.13
2022-10-29T08:07:56.427Z,5.38
2022-10-29T08:10:24.493Z,5.05
2022-10-29T08:12:59.992Z,4.57
2022-10-29T08:15:29.050Z,5.15
2022-10-29T08:17:56.855Z,5.63
2022-10-29T08:20:25.483Z,5.88
2022-10-29T08:22:52.282Z,6.47
2022-10-29T08:25:19.706Z,6.75
2022-10-29T08:27:57.381Z,6.85
2022-10-29T08:30:24.130Z,7.65
2022-10-29T08:32:50.891Z,8.27
2022-10-29T08:35:17.671Z,9.65
2022-10-29T08:37:45.615Z,10.20
2022-10-29T08:40:18.148Z,9.10
2022-10-29T08:43:13.325Z,9.20
2022-10-29T08:45:51.649Z,8.55
2022-10-29T08:48:46.523Z,8.27
2022-10-29T08:51:16.340Z,8.82
2022-10-29T08:53:58.869Z,8.32
2022-10-29T08:56:38.917Z,9.60
2022-10-29T08:59:24.074Z,10.05
2022-10-29T09:01:53.778Z,10.02
2022-10-29T09:04:23.880Z,9.57
2022-10-29T09:06:50.548Z,9.05
2022-10-29T09:09:29.549Z,9.40
2022-10-29T09:11:56.225Z,11.07
2022-10-29T09:14:47.602Z,9.73
2022-10-29T09:17:30.602Z,9.85
2022-10-29T09:20:12.572Z,9.55
2022-10-29T09:25:58.027Z,9.60
2022-10-29T09:28:53.906Z,9.32
2022-10-29T09:31:28.916Z,9.07
2022-10-29T09:34:01.949Z,9.98
2022-10-29T09:36:30.968Z,9.25
2022-10-29T09:39:09.964Z,10.45
2022-10-29T09:41:38.508Z,11.38
2022-10-29T09:44:25.733Z,10.27
2022-10-29T09:47:28.574Z,8.93
2022-10-29T09:50:05.432Z,9.95
2022-10-29T09:52:40.023Z,9.27
2022-10-29T09:55:11.145Z,9.90
2022-10-29T09:57:40.164Z,9.98
2022-10-29T10:00:24.144Z,10.00
2022-10-29T10:03:05.614Z,8.77
2022-10-29T10:05:34.882Z,8.80
2022-10-29T10:08:15.020Z,9.55
2022-10-29T10:10:53.647Z,9.68
2022-10-29T10:13:27.348Z,9.23
2022-10-29T10:15:59.205Z,9.70
2022-10-29T10:18:38.486Z,9.35
2022-10-29T10:21:24.073Z,10.02
2022-10-29T10:23:52.658Z,9.93
2022-10-29T10:26:30.739Z,9.15
2022-10-29T10:29:27.011Z,9.90
2022-10-29T10:31:56.809Z,10.15
2022-10-29T10:34:33.584Z,9.73
2022-10-29T10:37:07.241Z,10.73
2022-10-29T10:39:38.926Z,9.63
2022-10-29T10:42:22.173Z,9.95
2022-10-29T10:44:58.900Z,10.32
2022-10-29T10:47:29.457Z,10.13
2022-10-29T10:50:25.055Z,11.55
2022-10-29T10:52:55.281Z,11.40
2022-10-29T10:55:27.477Z,10.50
2022-10-29T10:58:10.600Z,9.40
2022-10-29T11:00:55.933Z,10.30
2022-10-29T11:03:35.188Z,9.82
2022-10-29T11:06:13.160Z,10.20
2022-10-29T11:08:46.824Z,10.85
2022-10-29T11:11:16.575Z,10.45
2022-10-29T11:13:43.988Z,9.90
2022-10-29T11:16:20.435Z,10.05
2022-10-29T11:19:10.844Z,10.63
2022-10-29T11:21:51.365Z,10.55
2022-10-29T11:24:45.144Z,11.35
2022-10-29T11:27:33.379Z,10.30
2022-10-29T11:30:09.459Z,12.30
2022-10-29T11:33:07.073Z,12.13
2022-10-29T11:36:01.491Z,11.90
2022-10-29T11:38:39.528Z,11.02
2022-10-29T11:41:25.755Z,12.40
2022-10-29T11:43:52.783Z,12.65
2022-10-29T11:46:19.485Z,13.13
2022-10-29T11:48:59.108Z,11.48
2022-10-29T11:51:33.503Z,11.60
2022-10-29T11:54:23.944Z,10.10
2022-10-29T11:57:04.992Z,9.52
2022-10-29T12:00:00.863Z,10.93
2022-10-29T12:02:30.624Z,10.52
2022-10-29T12:05:35.826Z,10.25
2022-10-29T12:08:11.294Z,10.02
2022-10-29T12:11:06.250Z,9.63
2022-10-29T12:13:44.555Z,11.52
2022-10-29T12:16:24.694Z,9.80
2022-10-29T12:19:11.699Z,9.48
2022-10-29T12:21:53.353Z,10.80
2022-10-29T12:24:57.944Z,9.77
2022-10-29T12:27:33.561Z,10.27
2022-10-29T12:30:05.033Z,10.25
2022-10-29T12:32:54.005Z,10.93
2022-10-29T12:35:42.342Z,9.77
2022-10-29T12:38:27.618Z,9.27
2022-10-29T12:41:01.416Z,10.10
2022-10-29T12:43:31.756Z,9.60
2022-10-29T12:49:38.780Z,9.13
2022-10-29T12:52:13.874Z,10.15
2022-10-29T12:54:43.515Z,9.52
2022-10-29T12:57:13.018Z,9.35
2022-10-29T12:59:41.608Z,9.38
2022-10-29T13:02:36.614Z,9.43
2022-10-29T13:05:06.487Z,9.45
2022-10-29T13:07:34.218Z,9.45
2022-10-29T13:10:23.372Z,8.27
2022-10-29T13:13:00.691Z,7.20
2022-10-29T13:15:42.128Z,6.80
2022-10-29T13:18:41.616Z,6.13
2022-10-29T13:21:09.055Z,6.60
2022-10-29T13:23:37.852Z,5.95
2022-10-29T13:26:07.573Z,6.68
2022-10-29T13:28:37.335Z,7.07
2022-10-29T13:31:04.056Z,5.68
2022-10-29T13:33:30.766Z,5.32
2022-10-29T13:36:18.890Z,5.55
2022-10-29T13:39:05.279Z,5.30
2022-10-29T13:41:42.856Z,5.90
2022-10-29T13:44:10.030Z,5.40
2022-10-29T13:46:54.611Z,5.85
2022-10-29T13:49:32.081Z,5.95
2022-10-29T13:52:01.693Z,5.88
2022-10-29T13:54:49.531Z,5.20
2022-10-29T13:57:31.557Z,5.25
2022-10-29T14:00:05.278Z,5.25
2022-10-29T14:02:36.700Z,5.50
2022-10-29T14:05:14.041Z,5.30
2022-10-29T14:08:21.761Z,4.13
2022-10-29T14:10:52.067Z,4.00
2022-10-29T14:13:42.706Z,7.72
2022-10-29T14:16:11.986Z,5.00
2022-10-29T14:18:41.230Z,3.97
2022-10-29T14:21:34.381Z,4.88
2022-10-29T14:24:07.368Z,4.22
2022-10-29T14:26:40.086Z,3.63
2022-10-29T14:29:33.333Z,2.72
2022-10-29T14:32:22.546Z,3.15
2022-10-29T14:34:50.759Z,3.22
2022-10-29T14:37:30.878Z,3.17
2022-10-29T14:40:01.950Z,3.08
2022-10-29T14:42:34.703Z,3.88
2022-10-29T14:45:06.126Z,3.95
2022-10-29T14:47:36.066Z,3.80
2022-10-29T14:50:06.542Z,3.83
2022-10-29T14:52:38.821Z,3.83
2022-10-29T14:55:26.329Z,4.05
2022-10-29T14:58:05.355Z,5.13
2022-10-29T15:00:36.905Z,5.60
2022-10-29T15:05:34.895Z,6.75
2022-10-29T15:08:15.855Z,6.95
2022-10-29T15:10:47.248Z,5.70
2022-10-29T15:13:30.824Z,6.03
2022-10-29T15:16:05.960Z,7.20
2022-10-29T15:18:34.150Z,5.80
2022-10-29T15:21:04.250Z,8.57
2022-10-29T15:23:41.239Z,19.05
2022-10-29T15:26:11.363Z,11.32
2022-10-29T15:28:41.658Z,7.95
2022-10-29T15:31:55.761Z,16.55
2022-10-29T15:34:32.559Z,9.57
2022-10-29T15:37:19.857Z,8.65
2022-10-29T15:40:06.903Z,6.47
2022-10-29T15:42:36.333Z,6.57
2022-10-29T15:45:09.032Z,7.20
2022-10-29T15:47:43.444Z,6.38
2022-10-29T15:50:19.304Z,9.32
2022-10-29T15:52:52.631Z,5.55
2022-10-29T15:55:26.845Z,4.55
2022-10-29T15:57:56.527Z,5.32
2022-10-29T16:00:24.179Z,5.03
2022-10-29T16:02:51.643Z,4.03
2022-10-29T16:05:18.829Z,5.20
2022-10-29T16:07:48.171Z,5.78
2022-10-29T16:10:17.818Z,5.28
2022-10-29T16:12:45.112Z,4.53
2022-10-29T16:15:17.401Z,4.20
2022-10-29T16:17:44.364Z,4.68
2022-10-29T16:20:16.345Z,5.07
2022-10-29T16:22:43.617Z,5.53
2022-10-29T16:25:21.713Z,5.80
2022-10-29T16:27:48.993Z,4.97
2022-10-29T16:30:16.046Z,4.32
2022-10-29T16:32:44.104Z,4.82
2022-10-29T16:35:22.188Z,5.72
2022-10-29T16:37:49.998Z,5.20
2022-10-29T16:40:17.769Z,4.95
2022-10-29T16:42:44.776Z,4.95
2022-10-29T16:45:32.233Z,5.35
2022-10-29T16:47:59.683Z,5.38
2022-10-29T16:50:29.055Z,5.30
2022-10-29T16:53:06.782Z,5.63
2022-10-29T16:55:36.314Z,5.43
2022-10-29T16:58:03.811Z,5.60
2022-10-29T17:00:36.348Z,5.10
2022-10-29T17:03:06.990Z,5.30
2022-10-29T17:05:39.349Z,5.70
2022-10-29T17:08:07.014Z,5.80
2022-10-29T17:10:34.340Z,6.05
2022-10-29T17:13:01.342Z,6.07
2022-10-29T17:15:28.267Z,6.10
2022-10-29T17:17:55.026Z,6.30
2022-10-29T17:20:21.837Z,6.45
2022-10-29T17:22:48.707Z,6.88
2022-10-29T17:25:15.635Z,6.20
2022-10-29T17:27:42.567Z,6.43
2022-10-29T17:30:10.727Z,7.45
2022-10-29T17:32:37.630Z,7.82
2022-10-29T17:35:04.653Z,7.28
2022-10-29T17:37:31.530Z,7.50
2022-10-29T17:40:02.935Z,7.43
2022-10-29T17:42:33.643Z,8.48
2022-10-29T17:45:00.404Z,7.95
2022-10-29T17:47:27.320Z,7.95
2022-10-29T17:49:54.163Z,7.40
2022-10-29T17:52:20.956Z,7.40
2022-10-29T17:54:47.627Z,8.50
2022-10-29T17:57:14.362Z,6.97
2022-10-29T17:59:41.088Z,8.10
2022-10-29T18:02:10.972Z,8.77
2022-10-29T18:04:37.854Z,7.63
2022-10-29T18:07:04.585Z,7.80
2022-10-29T18:09:31.376Z,7.63
2022-10-29T18:11:58.220Z,8.02
2022-10-29T18:14:25.058Z,7.53
2022-10-29T18:16:51.744Z,7.85
2022-10-29T18:19:18.572Z,7.78
2022-10-29T18:21:45.496Z,7.65
2022-10-29T18:24:12.385Z,7.60
2022-10-29T18:26:39.121Z,8.27
2022-10-29T18:29:08.917Z,7.60
2022-10-29T18:31:36.332Z,7.32
2022-10-29T18:34:05.966Z,7.03
2022-10-29T18:36:33.169Z,6.60
2022-10-29T18:39:00.103Z,6.95
2022-10-29T18:41:27.155Z,6.90
2022-10-29T18:43:54.585Z,6.40
2022-10-29T18:46:21.780Z,7.75
2022-10-29T18:48:49.634Z,7.25
2022-10-29T18:51:24.329Z,7.85
2022-10-29T18:53:52.302Z,6.47
2022-10-29T18:56:20.738Z,6.55
2022-10-29T18:58:48.124Z,6.60
2022-10-29T19:01:20.647Z,6.72
2022-10-29T19:03:52.850Z,6.82
2022-10-29T19:06:21.744Z,7.28
2022-10-29T19:08:48.619Z,7.22
2022-10-29T19:11:20.967Z,6.43
2022-10-29T19:13:56.517Z,6.78
2022-10-29T19:16:23.560Z,6.40
2022-10-29T19:18:55.678Z,7.65
2022-10-29T19:21:22.701Z,7.25
2022-10-29T19:23:54.166Z,7.95
2022-10-29T19:26:20.865Z,6.05
2022-10-29T19:28:47.797Z,6.28
2022-10-29T19:31:18.069Z,6.32
2022-10-29T19:33:49.632Z,6.80
2022-10-29T19:36:17.396Z,6.80
2022-10-29T19:38:44.537Z,7.70
2022-10-29T19:41:12.340Z,6.90
2022-10-29T19:43:39.894Z,6.47
2022-10-29T19:46:12.305Z,6.95
2022-10-29T19:48:40.584Z,6.07
2022-10-29T19:51:08.575Z,6.03
2022-10-29T19:53:38.238Z,5.80
2022-10-29T19:56:10.626Z,5.32
2022-10-29T19:58:37.563Z,5.13
2022-10-29T20:01:12.203Z,5.82
2022-10-29T20:03:39.123Z,6.00
2022-10-29T20:06:06.650Z,5.32
2022-10-29T20:08:33.533Z,5.65
2022-10-29T20:11:00.940Z,4.93
2022-10-29T20:13:28.344Z,6.25
2022-10-29T20:15:55.219Z,5.20
2022-10-29T20:18:22.349Z,5.20
2022-10-29T20:20:56.447Z,5.05
2022-10-29T20:23:25.664Z,4.78
2022-10-29T20:25:52.786Z,5.47
2022-10-29T20:28:19.571Z,5.57
2022-10-29T20:30:46.533Z,4.97
2022-10-29T20:33:13.436Z,5.20
2022-10-29T20:35:40.198Z,5.25
2022-10-29T20:38:07.031Z,5.32
2022-10-29T20:40:33.955Z,6.15
2022-10-29T20:43:00.754Z,5.57
2022-10-29T20:45:27.550Z,4.95
2022-10-29T20:47:54.549Z,4.90
2022-10-29T20:50:21.484Z,5.43
2022-10-29T20:52:48.972Z,5.00
2022-10-29T20:55:16.310Z,4.85
2022-10-29T20:57:43.160Z,5.00
2022-10-29T21:00:10.620Z,4.97
2022-10-29T21:02:37.581Z,6.20
2022-10-29T21:05:04.691Z,6.10
2022-10-29T21:07:31.487Z,5.82
2022-10-29T21:09:58.271Z,5.65
2022-10-29T21:12:25.093Z,4.93
2022-10-29T21:14:51.793Z,5.25
2022-10-29T21:17:18.644Z,5.85
2022-10-29T21:19:45.354Z,6.03
2022-10-29T21:22:14.874Z,6.55
2022-10-29T21:24:44.686Z,6.60
2022-10-29T21:27:12.721Z,6.97
2022-10-29T21:29:39.528Z,6.65
2022-10-29T21:32:06.578Z,7.40
2022-10-29T21:34:33.344Z,6.85
2022-10-29T21:37:00.111Z,6.50
2022-10-29T21:39:27.697Z,7.07
2022-10-29T21:41:54.465Z,6.35
2022-10-29T21:44:21.301Z,6.63
2022-10-29T21:46:48.066Z,6.03
2022-10-29T21:49:14.802Z,6.05
2022-10-29T21:51:41.967Z,6.97
2022-10-29T21:54:08.812Z,6.57
2022-10-29T21:56:35.572Z,5.85
2022-10-29T21:59:02.474Z,6.13
2022-10-29T22:01:29.367Z,6.63
2022-10-29T22:03:56.239Z,7.03
2022-10-29T22:06:25.821Z,6.65
2022-10-29T22:08:55.257Z,5.15
2022-10-29T22:11:23.278Z,4.72
2022-10-29T22:13:50.346Z,5.00
2022-10-29T22:16:17.267Z,5.35
2022-10-29T22:18:44.466Z,5.78
2022-10-29T22:21:15.800Z,4.60
2022-10-29T22:23:47.561Z,4.63
2022-10-29T22:26:17.700Z,4.30
2022-10-29T22:28:45.209Z,5.55
2022-10-29T22:31:12.003Z,4.95
2022-10-29T22:33:39.462Z,4.60
2022-10-29T22:36:12.748Z,4.75
2022-10-29T22:38:40.221Z,3.95
2022-10-29T22:41:15.928Z,4.65
2022-10-29T22:43:43.506Z,3.80
2022-10-29T22:46:11.934Z,4.78
2022-10-29T22:48:38.705Z,4.68
2022-10-29T22:51:16.604Z,4.88
2022-10-29T22:53:44.209Z,3.50
2022-10-29T22:56:16.725Z,3.35
2022-10-29T22:58:43.997Z,4.38
2022-10-29T23:01:16.923Z,3.05
2022-10-29T23:03:44.662Z,3.35
2022-10-29T23:06:13.801Z,2.88
2022-10-29T23:08:40.782Z,3.47
2022-10-29T23:11:12.485Z,3.58
2022-10-29T23:13:39.273Z,3.13
2022-10-29T23:16:06.657Z,3.50
2022-10-29T23:18:33.486Z,3.33
2022-10-29T23:21:02.100Z,3.38
2022-10-29T23:23:30.005Z,3.53
2022-10-29T23:26:01.199Z,3.17
2022-10-29T23:28:36.699Z,2.47
2022-10-29T23:31:06.344Z,3.28
2022-10-29T23:33:34.015Z,2.97
2022-10-29T23:36:07.919Z,2.88
2022-10-29T23:38:35.070Z,3.17
2022-10-29T23:41:02.250Z,3.05
2022-10-29T23:43:29.640Z,3.83
2022-10-29T23:45:56.367Z,3.70
2022-10-29T23:48:23.890Z,3.03
2022-10-29T23:50:50.673Z,2.83
2022-10-29T23:53:17.668Z,3.05
2022-10-29T23:55:45.071Z,3.20
2022-10-29T23:58:13.962Z,2.88
